Tuesday, May 23, 2017, 12:41 PM EDT

KSHD, Staunton / Shenandoah

Location: Weyers Cave, VA, United States Lat: 38.267
Local Time: 12:41 PM EDT (16:41 GMT) Lon: -78.9
Time Zone: US/Eastern Elev: 1200 ft

Show me the last for .
Show Decoded

2017-05-23 12:15 METAR KSHD 231615Z AUTO 06006KT 10SM BKN040 BKN060 OVC095 16/10 A2994 RMK AO2
                 T01600102 =
2017-05-23 11:55 METAR KSHD 231555Z AUTO 02004KT 10SM OVC040 16/10 A2996 RMK AO2 T01580104 =
2017-05-23 11:35 METAR KSHD 231535Z AUTO 35003KT 10SM BKN038 16/11 A2997 RMK AO2 T01560111 =
2017-05-23 11:15 METAR KSHD 231515Z AUTO 03004KT 10SM BKN040 16/11 A2996 RMK AO2 T01550108 =
2017-05-23 10:55 METAR KSHD 231455Z AUTO 05005KT 10SM OVC040 15/11 A2998 RMK AO2 T01530108 =
2017-05-23 10:35 METAR KSHD 231435Z AUTO 08004KT 10SM -DZ OVC042 15/11 A2998 RMK AO2 T01520110 =
2017-05-23 10:15 METAR KSHD 231415Z AUTO 08003KT 10SM -DZ OVC040 15/11 A2998 RMK AO2 T01450109 =
2017-05-23 09:55 METAR KSHD 231355Z AUTO 36003KT 10SM DZ SCT030 OVC040 14/11 A2999 RMK AO2
                 T01410109 =
2017-05-23 09:35 METAR KSHD 231335Z AUTO 01004KT 10SM -RA BKN028 OVC040 14/11 A3000 RMK AO2
                 T01400109 =
2017-05-23 09:15 METAR KSHD 231315Z AUTO 10003KT 10SM -RA OVC028 14/12 A2999 RMK AO2 T01400116 =
2017-05-23 08:55 METAR KSHD 231255Z AUTO 07004KT 10SM -RA OVC028 14/11 A2999 RMK AO2 T01420111 =
2017-05-23 08:35 METAR KSHD 231235Z AUTO 00000KT 10SM OVC030 14/11 A2999 RMK AO2 T01420111 =
2017-05-23 08:15 METAR KSHD 231215Z AUTO 29003KT 10SM OVC032 14/11 A3000 RMK AO2 T01400114 =
2017-05-23 07:55 METAR KSHD 231155Z AUTO 05003KT 10SM OVC032 14/11 A2995 RMK AO2 T01380114 10142
                 20132 =
2017-05-23 07:35 METAR KSHD 231135Z AUTO 00000KT 10SM OVC032 14/11 A2997 RMK AO2 T01400110 =
2017-05-23 07:15 METAR KSHD 231115Z AUTO 33004KT 10SM OVC032 14/11 A2997 RMK AO2 T01400112 =
2017-05-23 06:55 METAR KSHD 231055Z AUTO 35003KT 10SM OVC032 14/11 A2996 RMK AO2 T01400110 =
2017-05-23 06:35 METAR KSHD 231035Z AUTO 01003KT 10SM OVC032 14/11 A2996 RMK AO2 T01400106 =
2017-05-23 06:15 METAR KSHD 231015Z AUTO 00000KT 10SM BKN034 OVC043 14/11 A2997 RMK AO2 T01370111
                 =
2017-05-23 05:55 METAR KSHD 230955Z AUTO 00000KT 10SM SCT029 BKN035 OVC043 14/11 A2998 RMK AO2
                 T01400106 =
2017-05-23 05:35 METAR KSHD 230935Z AUTO 00000KT 10SM BKN029 BKN036 OVC044 14/11 A2998 RMK AO2
                 T01360111 =
2017-05-23 05:15 METAR KSHD 230915Z AUTO 00000KT 10SM SCT035 OVC040 14/11 A2998 RMK AO2 T01350114
                 =
2017-05-23 04:55 METAR KSHD 230855Z AUTO 00000KT 10SM OVC035 14/11 A2998 RMK AO2 T01350110 =
2017-05-23 04:35 METAR KSHD 230835Z AUTO 36003KT 10SM OVC033 14/11 A2997 RMK AO2 T01370109 =
2017-05-23 04:15 METAR KSHD 230815Z AUTO 00000KT 10SM BKN033 14/11 A2998 RMK AO2 T01370106 =
2017-05-23 03:55 METAR KSHD 230755Z AUTO 00000KT 10SM BKN031 BKN046 14/11 A2998 RMK AO2 T01390108
                 =
2017-05-23 03:35 METAR KSHD 230735Z AUTO 01004KT 10SM SCT031 SCT040 BKN046 14/11 A2998 RMK AO2
                 T01390106 =
2017-05-23 03:15 METAR KSHD 230715Z AUTO 00000KT 10SM SCT031 13/11 A2999 RMK AO2 T01330105 =
2017-05-23 02:55 METAR KSHD 230655Z AUTO 00000KT 10SM SCT035 SCT055 14/11 A2999 RMK AO2 T01360107
                 =
2017-05-23 02:35 METAR KSHD 230635Z AUTO 36003KT 10SM BKN035 OVC055 14/11 A2999 RMK AO2 T01360112
                 =
2017-05-23 02:15 METAR KSHD 230615Z AUTO 03003KT 10SM SCT035 BKN049 13/11 A3000 RMK AO2 T01330110
                 =
2017-05-23 01:55 METAR KSHD 230555Z AUTO 00000KT 10SM BKN049 14/11 A3001 RMK AO2 T01360105 10227
                 20125 402620125 =
2017-05-23 01:35 METAR KSHD 230535Z AUTO 00000KT 10SM CLR 13/10 A3001 RMK AO2 T01300103 =
2017-05-23 01:15 METAR KSHD 230515Z AUTO 00000KT 10SM CLR 14/10 A3001 RMK AO2 T01350102 =
2017-05-23 00:55 METAR KSHD 230455Z AUTO 00000KT 10SM CLR 14/10 A3002 RMK AO2 T01370100 =
2017-05-23 00:35 METAR KSHD 230435Z AUTO 01003KT 10SM CLR 16/10 A3002 RMK AO2 T01600098 =
2017-05-23 00:15 METAR KSHD 230415Z AUTO 34004KT 10SM CLR 15/10 A3002 RMK AO2 T01520101 =
2017-05-22 23:55 METAR KSHD 230355Z AUTO 00000KT 10SM CLR 15/10 A3002 RMK AO2 T01520101 =
2017-05-22 23:35 METAR KSHD 230335Z AUTO 00000KT 10SM CLR 15/10 A3003 RMK AO2 T01540102 =
2017-05-22 23:15 METAR KSHD 230315Z AUTO 02003KT 10SM CLR 17/10 A3003 RMK AO2 T01660100 =
2017-05-22 22:55 METAR KSHD 230255Z AUTO 01004KT 10SM CLR 17/10 A3003 RMK AO2 T01740098 =
2017-05-22 22:35 METAR KSHD 230235Z AUTO 00000KT 10SM CLR 16/11 A3004 RMK AO2 T01590107 =
2017-05-22 22:15 METAR KSHD 230215Z AUTO 06003KT 10SM CLR 17/10 A3003 RMK AO2 T01710101 =
2017-05-22 21:55 METAR KSHD 230155Z AUTO 35004KT 10SM CLR 19/10 A3002 RMK AO2 T01900095 =
2017-05-22 21:35 METAR KSHD 230135Z AUTO 01003KT 10SM CLR 19/10 A3002 RMK AO2 T01870098 =
2017-05-22 21:15 METAR KSHD 230115Z AUTO 33004KT 10SM CLR 20/10 A3001 RMK AO2 T01990095 =
2017-05-22 20:55 METAR KSHD 230055Z AUTO 34006KT 10SM SCT065 21/10 A2999 RMK AO2 T02050098 =
2017-05-22 20:35 METAR KSHD 230035Z AUTO 36004KT 10SM BKN065 21/11 A2999 RMK AO2 T02100105 =
2017-05-22 20:15 METAR KSHD 230015Z AUTO 30004KT 10SM SCT065 21/12 A3000 RMK AO2 T02080121 =
2017-05-22 19:55 METAR KSHD 222355Z AUTO 01004KT 10SM CLR 23/11 A2998 RMK AO2 T02280110 10262
                 20227 =
2017-05-22 19:35 METAR KSHD 222335Z AUTO 35005KT 10SM SCT075 23/11 A2998 RMK AO2 T02340108 =
2017-05-22 19:15 METAR KSHD 222315Z AUTO 34006KT 10SM BKN075 24/11 A2998 RMK AO2 T02390113 =
2017-05-22 18:55 METAR KSHD 222255Z AUTO 34006KT 10SM BKN065 25/12 A2997 RMK AO2 T02450116 =
2017-05-22 18:35 METAR KSHD 222235Z AUTO 31006KT 10SM BKN065 25/10 A2996 RMK AO2 T02510103 =
2017-05-22 18:15 METAR KSHD 222215Z AUTO 28006KT 10SM SCT065 26/11 A2996 RMK AO2 T02560114 =
2017-05-22 17:55 METAR KSHD 222155Z AUTO 25005KT 10SM CLR 26/13 A2996 RMK AO2 T02570131 =
2017-05-22 17:35 METAR KSHD 222135Z AUTO 25008KT 10SM SCT060 26/13 A2995 RMK AO2 T02600126 =
2017-05-22 17:15 METAR KSHD 222115Z AUTO 24008KT 10SM SCT060 26/14 A2995 RMK AO2 T02610136 =
2017-05-22 16:55 METAR KSHD 222055Z AUTO 24005KT 10SM BKN060 25/15 A2995 RMK AO2 T02510150 =
2017-05-22 16:35 METAR KSHD 222035Z AUTO 23009KT 10SM BKN060 26/16 A2995 RMK AO2 T02550163 =
2017-05-22 16:15 METAR KSHD 222015Z AUTO 24009KT 10SM BKN060 25/16 A2996 RMK AO2 T02540162 =
2017-05-22 15:55 METAR KSHD 221955Z AUTO 21010KT 10SM SCT044 BKN050 BKN065 25/17 A2996 RMK AO2
                 T02540165 =
2017-05-22 15:35 METAR KSHD 221935Z AUTO 19009KT 10SM SCT043 SCT049 BKN065 25/17 A2996 RMK AO2
                 T02480171 =
2017-05-22 15:15 METAR KSHD 221915Z AUTO 21008KT 10SM CLR 25/17 A2997 RMK AO2 T02510173 =
2017-05-22 14:55 METAR KSHD 221855Z AUTO 20008KT 10SM CLR 25/17 A2998 RMK AO2 T02490171 =
2017-05-22 14:35 METAR KSHD 221835Z AUTO 22008KT 10SM SCT031 25/17 A2998 RMK AO2 T02450174 =
2017-05-22 14:15 METAR KSHD 221815Z AUTO 18007KT 10SM SCT031 24/17 A2999 RMK AO2 T02420174 =
2017-05-22 13:55 METAR KSHD 221755Z AUTO 18006KT 10SM CLR 24/18 A3000 RMK AO2 T02390176 10239
                 20150 =
2017-05-22 13:35 METAR KSHD 221735Z AUTO 18005KT 10SM CLR 23/17 A3000 RMK AO2 T02310172 =
2017-05-22 13:15 METAR KSHD 221715Z AUTO 22005KT 10SM SCT027 SCT033 23/17 A3002 RMK AO2 T02290171
                 =
2017-05-22 12:55 METAR KSHD 221655Z AUTO 22004KT 10SM BKN026 BKN035 23/17 A3003 RMK AO2 T02300170
                 =

Support USWX by starting your Amazon purchase here.